• Join FlightAware (Why Join?)
  • Login
  • US Flag 
09:19PM EDT


 

Airport Tracker/Info


-or-


 

Live Flight TrackerFlight Track Log ✈ ABX501 ✈ 22-Jan-2014 ✈ KCVG - KIAH

Flight Track Log - Related Links

Times and Time Zones

All times are in EST time to prevent confusion due to time zone crossing. See the ABX501 flight status page for this flight to view local times or setup timezone preferences in your user account.

Time Position Orientation Groundspeed Altitude Reporting Facility
EST Latitude Longitude Course Direction KTS MPH feet Rate Location/Type
06:22AM 39.0500 -84.6833 270° West 153 176 1,400  Level Cincinnati TRACON
06:23AM 39.0500 -84.7000 270° West 151 174 2,400 1,920 Climbing Cincinnati TRACON
06:24AM 39.0500 -84.7667 270° West 206 237 4,100 1,920 Climbing Cincinnati TRACON
06:25AM 39.0500 -84.8500 270° West 251 289 6,300 2,100 Climbing Cincinnati TRACON
06:25AM 39.0392 -84.8858 249° West 245 282 7,400 1,620 Climbing Indianapolis Center
06:26AM 38.9617 -84.8983 187° South 286 329 8,900 780 Climbing Indianapolis Center
06:27AM 38.8800 -84.8950 178° South 293 337 9,000 960 Climbing Indianapolis Center
06:28AM 38.7814 -84.8883 177° South 295 339 10,900 1,500 Climbing Indianapolis Center
06:29AM 38.6858 -84.9231 196° South 349 402 12,100 1,680 Climbing Indianapolis Center
06:30AM 38.6128 -85.0033 221° Southwest 390 449 14,300 2,460 Climbing Indianapolis Center
06:31AM 38.5164 -85.1125 222° Southwest 398 458 17,100 2,340 Climbing Indianapolis Center
06:32AM 38.4347 -85.2053 222° Southwest 408 470 19,100 1,860 Climbing Indianapolis Center
06:33AM 38.3553 -85.2936 221° Southwest 428 493 20,900 1,980 Climbing Indianapolis Center
06:34AM 38.2633 -85.3972 222° Southwest 436 502 23,100 1,920 Climbing Indianapolis Center
06:35AM 38.1686 -85.5050 222° Southwest 447 514 24,800 1,560 Climbing Indianapolis Center
06:36AM 38.0747 -85.6203 224° Southwest 464 534 26,300 1,500 Climbing Indianapolis Center
06:37AM 37.9933 -85.7453 230° Southwest 459 528 27,900 1,680 Climbing Indianapolis Center
06:38AM 37.9078 -85.8689 229° Southwest 462 532 29,800 1,860 Climbing Indianapolis Center
06:39AM 37.8178 -85.9850 226° Southwest 458 527 31,700 1,800 Climbing Indianapolis Center
06:40AM 37.7292 -86.0992 226° Southwest 452 520 33,500 1,500 Climbing Indianapolis Center
06:41AM 37.6383 -86.2156 225° Southwest 449 517 34,800 1,200 Climbing Indianapolis Center
06:42AM 37.5486 -86.3281 225° Southwest 451 519 36,000 540 Climbing Indianapolis Center
06:43AM 37.4594 -86.4394 225° Southwest 449 517 36,000  Level Indianapolis Center
06:44AM 37.3722 -86.5500 225° Southwest 444 511 36,000  Level Indianapolis Center
06:45AM 37.2839 -86.6592 225° Southwest 442 509 36,000  Level Indianapolis Center
06:46AM 37.1956 -86.7689 225° Southwest 444 511 36,000  Level Indianapolis Center
06:47AM 37.1081 -86.8794 225° Southwest 444 511 36,000  Level Memphis Center
06:48AM 37.0194 -86.9875 224° Southwest 443 510 36,000  Level Memphis Center
06:49AM 36.9311 -87.0981 225° Southwest 445 512 36,000  Level Memphis Center
06:50AM 36.8417 -87.2075 224° Southwest 447 514 36,000  Level Memphis Center
06:51AM 36.7508 -87.3175 224° Southwest 451 519 36,000  Level Memphis Center
06:52AM 36.6617 -87.4267 224° Southwest 451 519 36,000  Level Memphis Center
06:53AM 36.5708 -87.5347 224° Southwest 450 518 36,000  Level Memphis Center
06:54AM 36.4808 -87.6444 224° Southwest 451 519 36,000  Level Memphis Center
06:55AM 36.4064 -87.7353 224° Southwest 449 517 36,000  Level Memphis Center
06:56AM 36.3169 -87.8425 224° Southwest 445 512 36,000  Level Memphis Center
06:57AM 36.2275 -87.9500 224° Southwest 445 512 36,000  Level Memphis Center
06:58AM 36.1386 -88.0553 224° Southwest 442 509 36,000  Level Memphis Center
06:59AM 36.0483 -88.1647 224° Southwest 443 510 36,000  Level Memphis Center
07:00AM 35.9586 -88.2703 224° Southwest 443 510 36,000  Level Memphis Center
07:01AM 35.8700 -88.3753 224° Southwest 441 507 36,000  Level Memphis Center
07:02AM 35.7803 -88.4797 223° Southwest 441 507 36,000  Level Memphis Center
07:03AM 35.6917 -88.5842 224° Southwest 439 505 36,000  Level Memphis Center
07:04AM 35.6033 -88.6872 224° Southwest 437 503 36,000  Level Memphis Center
07:05AM 35.5053 -88.8022 224° Southwest 434 499 36,000  Level Memphis Center
07:06AM 35.4175 -88.9042 223° Southwest 432 497 36,000  Level Memphis Center
07:07AM 35.3289 -89.0047 223° Southwest 431 496 36,000  Level Memphis Center
07:08AM 35.2428 -89.1061 224° Southwest 427 491 36,000  Level Memphis Center
07:09AM 35.1542 -89.2081 223° Southwest 429 494 36,000  Level Memphis Center
07:10AM 35.0803 -89.2931 223° Southwest 432 497 36,000  Level Memphis Center
07:11AM 34.9917 -89.3956 223° Southwest 433 498 36,000  Level Memphis Center
07:13AM 34.9025 -89.4972 223° Southwest 433 498 36,000  Level Memphis Center
07:14AM 34.8117 -89.6022 224° Southwest 438 504 36,000  Level Memphis Center
07:15AM 34.7197 -89.7083 224° Southwest 439 505 36,000  Level Memphis Center
07:16AM 34.6272 -89.8125 223° Southwest 442 509 36,000  Level Memphis Center
07:17AM 34.5358 -89.9153 223° Southwest 442 509 36,000  Level Memphis Center
07:18AM 34.4450 -90.0169 223° Southwest 440 506 36,000  Level Memphis Center
07:19AM 34.3528 -90.1194 223° Southwest 443 510 36,000  Level Memphis Center
07:20AM 34.2614 -90.2233 223° Southwest 444 511 36,000  Level Memphis Center
07:21AM 34.1683 -90.3239 222° Southwest 446 513 36,000  Level Memphis Center
07:22AM 34.0767 -90.4281 223° Southwest 446 513 36,000  Level Memphis Center
07:23AM 33.9847 -90.5286 222° Southwest 445 512 36,000  Level Memphis Center
07:24AM 33.8917 -90.6319 223° Southwest 448 516 36,000  Level Memphis Center
07:25AM 33.7956 -90.7364 222° Southwest 443 510 36,000  Level Memphis Center
07:26AM 33.7050 -90.8356 222° Southwest 442 509 36,000  Level Memphis Center
07:27AM 33.6147 -90.9358 223° Southwest 444 511 36,000  Level Memphis Center
07:28AM 33.5256 -91.0336 222° Southwest 441 507 36,000  Level Memphis Center
07:29AM 33.4336 -91.1333 222° Southwest 445 512 36,000  Level Memphis Center
07:30AM 33.3400 -91.2344 222° Southwest 453 521 36,000  Level Memphis Center
07:31AM 33.2486 -91.3333 222° Southwest 448 516 36,000  Level Memphis Center
07:32AM 33.1575 -91.4317 222° Southwest 446 513 36,000  Level Memphis Center
07:33AM 33.0653 -91.5311 222° Southwest 447 514 36,000  Level Memphis Center
07:34AM 32.9739 -91.6292 222° Southwest 446 513 36,000  Level Memphis Center
07:35AM 32.8825 -91.7253 221° Southwest 443 510 36,000  Level Memphis Center
07:36AM 32.7717 -91.8425 222° Southwest 444 511 36,000  Level Memphis Center
07:37AM 32.6808 -91.9381 222° Southwest 441 507 36,000  Level Memphis Center
07:38AM 32.5953 -92.0297 222° Southwest 442 509 36,000  Level Memphis Center
07:39AM 32.5031 -92.1267 222° Southwest 442 509 36,000  Level Memphis Center
07:40AM 32.3739 -92.2614 221° Southwest 439 505 36,000  Level Houston Center
07:41AM 32.2822 -92.3606 222° Southwest 446 513 36,000 -60 Level Houston Center
07:42AM 32.1894 -92.4547 221° Southwest 441 507 35,900  Descending Houston Center
07:43AM 32.0972 -92.5522 222° Southwest 444 511 36,000  Climbing Houston Center
07:44AM 32.0047 -92.6483 221° Southwest 445 512 36,000  Level Houston Center
07:45AM 31.9097 -92.7425 220° Southwest 446 513 36,000 -60 Level Houston Center
07:46AM 31.8128 -92.8353 219° Southwest 449 517 35,900  Descending Houston Center
07:47AM 31.7169 -92.9275 219° Southwest 446 513 36,000  Climbing Houston Center
07:48AM 31.6206 -93.0203 219° Southwest 449 517 36,000  Level Houston Center
07:49AM 31.5247 -93.1131 220° Southwest 448 516 36,000  Level Houston Center
07:50AM 31.4289 -93.2028 219° Southwest 444 511 36,000  Level Houston Center
07:51AM 31.3278 -93.3008 220° Southwest 441 507 36,000  Level Houston Center
07:52AM 31.2214 -93.4025 219° Southwest 441 507 36,000  Level Houston Center
07:53AM 31.1258 -93.4925 219° Southwest 442 509 36,000  Level Houston Center
07:54AM 31.0306 -93.5831 219° Southwest 443 510 36,000  Level Houston Center
07:55AM 30.9342 -93.6728 219° Southwest 445 512 36,000 -180 Level Houston Center
07:56AM 30.8383 -93.7639 219° Southwest 447 514 35,700 -1,740 Descending Houston Center
07:57AM 30.7411 -93.8553 219° Southwest 452 520 32,500 -3,720 Descending Houston Center
07:58AM 30.6406 -93.9514 219° Southwest 467 537 28,200 -4,980 Descending Houston Center
07:59AM 30.5864 -94.0000 218° Southwest 477 549 25,700 -4,440 Descending Houston Center
07:59AM 30.5378 -94.0464 219° Southwest 477 549 23,700 -3,720 Descending Houston Center
08:00AM 30.4636 -94.1161 219° Southwest 473 544 21,200 -4,140 Descending Houston Center
08:00AM 30.4192 -94.1578 219° Southwest 465 535 19,500 -3,180 Descending Houston Center
08:01AM 30.3722 -94.2325 234° Southwest 416 479 17,700 -2,940 Descending Houston Center
08:01AM 30.3569 -94.2692 244° Southwest 426 490 16,500 -3,420 Descending Houston Center
08:02AM 30.3181 -94.3633 244° Southwest 402 463 13,900 -3,300 Descending Houston Center
08:03AM 30.3086 -94.3861 244° Southwest 408 470 13,200 -2,760 Descending Houston Center
08:03AM 30.2719 -94.4733 244° Southwest 389 448 11,100 -2,460 Descending Houston Center
08:04AM 30.2622 -94.4989 246° West 395 455 10,700 -1,140 Descending Houston Center
08:04AM 30.2242 -94.5861 243° Southwest 360 414 10,000 -720 Descending Houston Center
08:05AM 30.2169 -94.6042 245° Southwest 376 433 10,000  Level Houston Center
08:05AM 30.1939 -94.6625 245° Southwest 280 322 10,000  Level Houston Center
08:06AM 30.1825 -94.6839 238° Southwest 292 336 10,000 -120 Level Houston Center
08:06AM 30.1578 -94.7469 246° West 251 289 9,900 -420 Descending Houston Center
08:07AM 30.1544 -94.7589 252° West 264 304 9,600 -1,680 Descending Houston Center
08:07AM 30.1339 -94.8033 242° Southwest 262 302 8,600 -1,620 Descending Houston Center
08:08AM 30.1200 -94.8358 244° Southwest 266 306 8,000 -1,500 Descending Houston Center
08:08AM 30.0975 -94.8850 242° Southwest 265 305 7,100 -1,380 Descending Houston Center
08:09AM 30.0889 -94.9100 248° West 261 300 6,600 -1,380 Descending Houston Center
08:09AM 30.0667 -94.9589 242° Southwest 256 295 5,700 -1,380 Descending Houston Center
08:10AM 30.0589 -94.9833 250° West 257 296 5,200 -1,320 Descending Houston Center
08:10AM 30.0375 -95.0278 241° Southwest 226 260 4,400 -1,380 Descending Houston Center
08:11AM 30.0250 -95.0603 246° West 231 266 3,800 -1,020 Descending Houston Center
08:11AM 30.0103 -95.0964 245° Southwest 204 235 3,300 -720 Descending Houston Center
08:12AM 30.0006 -95.1158 240° Southwest 203 234 3,100 -300 Descending Houston Center
08:12AM 29.9944 -95.1514 259° West 163 188 3,000 -300 Descending Houston Center
08:13AM 29.9931 -95.1700 265° West 175 201 2,800 -840 Descending Houston Center
08:13AM 29.9931 -95.2047 270° West 166 191 2,200 -840 Descending Houston Center
08:14AM 29.9933 -95.2231 271° West 169 194 2,000 -720 Descending Houston Center
08:14AM 29.9931 -95.2506 269° West 129 148 1,500 -720 Descending Houston Center
08:15AM 29.9928 -95.2653 269° West 146 168 1,300 -840 Descending Houston Center
08:15AM 29.9936 -95.3011 272° West 138 159 600 -840 Descending Houston Center
08:16AM 29.9936 -95.3089 270° West 139 160 500 -300 Descending Houston Center
08:18AM 29.9833 -95.3333 270° West  Level FlightAware Approximate